createdAt,value
2019-01-29T00:00:07.020Z,5.04
2019-01-29T00:00:47.598Z,4.99
2019-01-29T00:01:28.162Z,5
2019-01-29T00:02:08.726Z,5
2019-01-29T00:02:49.275Z,5.02
2019-01-29T00:03:29.838Z,4.99
2019-01-29T00:04:10.410Z,4.99
2019-01-29T00:04:50.958Z,4.92
2019-01-29T00:05:31.514Z,4.92
2019-01-29T00:06:12.079Z,5.04
2019-01-29T00:06:52.658Z,5.07
2019-01-29T00:07:33.214Z,5.04
2019-01-29T00:08:13.797Z,5
2019-01-29T00:08:54.398Z,5.07
2019-01-29T00:09:34.915Z,5.05
2019-01-29T00:10:15.469Z,5.02
2019-01-29T00:10:56.031Z,5.04
2019-01-29T00:11:36.591Z,5.05
2019-01-29T00:12:17.185Z,5.05
2019-01-29T00:12:57.747Z,4.97
2019-01-29T00:13:38.321Z,5.05
2019-01-29T00:14:18.887Z,5.02
2019-01-29T00:14:59.449Z,5.02
2019-01-29T00:15:40.022Z,4.92
2019-01-29T00:16:20.576Z,4.92
2019-01-29T00:17:01.142Z,5.05
2019-01-29T00:17:41.703Z,4.93
2019-01-29T00:18:22.263Z,5
2019-01-29T00:19:02.822Z,4.93
2019-01-29T00:19:43.382Z,5.07
2019-01-29T00:20:23.944Z,5.05
2019-01-29T00:21:04.499Z,5.04
2019-01-29T00:21:45.052Z,4.96
2019-01-29T00:22:33.033Z,4.9
2019-01-29T00:23:06.170Z,4.92
2019-01-29T00:23:46.745Z,4.92
2019-01-29T00:24:27.290Z,4.94
2019-01-29T00:25:07.843Z,5.05
2019-01-29T00:25:48.406Z,4.96
2019-01-29T00:26:28.972Z,4.92
2019-01-29T00:27:09.544Z,4.94
2019-01-29T00:27:50.096Z,4.93
2019-01-29T00:28:30.647Z,4.96
2019-01-29T00:29:11.210Z,4.96
2019-01-29T00:29:51.771Z,4.93
2019-01-29T00:30:32.348Z,4.96
2019-01-29T00:31:12.905Z,4.93
2019-01-29T00:31:53.470Z,4.92
2019-01-29T00:32:34.041Z,4.93
2019-01-29T00:33:14.612Z,4.96
2019-01-29T00:33:55.161Z,4.93
2019-01-29T00:34:35.725Z,4.92
2019-01-29T00:35:16.278Z,4.93
2019-01-29T00:35:56.834Z,4.99
2019-01-29T00:36:37.400Z,4.97
2019-01-29T00:37:17.984Z,4.96
2019-01-29T00:37:58.583Z,4.99
2019-01-29T00:38:39.140Z,4.96
2019-01-29T00:39:19.702Z,5
2019-01-29T00:40:00.332Z,4.93
2019-01-29T00:40:40.890Z,4.93
2019-01-29T00:41:21.453Z,4.94
2019-01-29T00:42:02.000Z,4.93
2019-01-29T00:42:42.561Z,4.86
2019-01-29T00:43:23.121Z,4.93
2019-01-29T00:44:03.684Z,4.9
2019-01-29T00:44:44.304Z,4.94
2019-01-29T00:45:24.912Z,4.87
2019-01-29T00:46:05.508Z,4.87
2019-01-29T00:46:46.016Z,4.84
2019-01-29T00:47:26.571Z,4.75
2019-01-29T00:48:07.131Z,4.73
2019-01-29T00:48:47.693Z,4.78
2019-01-29T00:49:28.272Z,4.75
2019-01-29T00:50:08.836Z,4.78
2019-01-29T00:50:49.383Z,4.75
2019-01-29T00:51:29.956Z,4.78
2019-01-29T00:52:10.532Z,4.82
2019-01-29T00:52:51.089Z,4.82
2019-01-29T00:53:31.667Z,4.82
2019-01-29T00:54:12.219Z,4.87
2019-01-29T00:54:52.782Z,4.78
2019-01-29T00:55:33.371Z,4.77
2019-01-29T00:56:13.920Z,4.84
2019-01-29T00:56:54.483Z,4.78
2019-01-29T00:57:35.041Z,4.77
2019-01-29T00:58:15.589Z,4.84
2019-01-29T00:58:56.166Z,4.74
2019-01-29T00:59:36.721Z,4.86
2019-01-29T01:00:17.290Z,4.9
2019-01-29T01:00:57.850Z,4.77
2019-01-29T01:01:38.414Z,4.89
2019-01-29T01:02:18.986Z,4.82
2019-01-29T01:02:59.581Z,4.87
2019-01-29T01:03:40.234Z,4.87
2019-01-29T01:04:20.777Z,4.87
2019-01-29T01:05:01.326Z,4.9
2019-01-29T01:05:41.888Z,4.92
2019-01-29T01:06:22.460Z,4.87
2019-01-29T01:07:03.048Z,4.89
2019-01-29T01:07:43.593Z,4.89
2019-01-29T01:08:24.163Z,4.92
2019-01-29T01:09:04.741Z,4.92
2019-01-29T01:09:45.289Z,4.87
2019-01-29T01:10:25.853Z,4.92
2019-01-29T01:11:06.411Z,4.89
2019-01-29T01:11:46.971Z,4.74
2019-01-29T01:12:27.524Z,4.92
2019-01-29T01:13:08.078Z,4.84
2019-01-29T01:13:48.648Z,4.84
2019-01-29T01:14:29.215Z,4.8
2019-01-29T01:15:09.789Z,4.77
2019-01-29T01:15:50.338Z,4.78
2019-01-29T01:16:30.912Z,4.77
2019-01-29T01:17:11.481Z,4.74
2019-01-29T01:17:52.029Z,4.75
2019-01-29T01:18:32.613Z,4.77
2019-01-29T01:19:13.156Z,4.82
2019-01-29T01:19:53.728Z,4.75
2019-01-29T01:20:34.301Z,4.77
2019-01-29T01:21:14.861Z,4.75
2019-01-29T01:21:55.412Z,4.78
2019-01-29T01:22:35.993Z,4.77
2019-01-29T01:23:16.557Z,4.78
2019-01-29T01:23:57.119Z,4.7
2019-01-29T01:24:37.684Z,4.74
2019-01-29T01:25:18.253Z,4.73
2019-01-29T01:25:58.830Z,4.71
2019-01-29T01:26:39.391Z,4.66
2019-01-29T01:27:19.947Z,4.6
2019-01-29T01:28:00.509Z,4.68
2019-01-29T01:28:41.110Z,4.66
2019-01-29T01:29:21.679Z,4.66
2019-01-29T01:30:02.231Z,4.71
2019-01-29T01:30:42.800Z,4.59
2019-01-29T01:31:23.357Z,4.5
2019-01-29T01:32:03.902Z,4.48
2019-01-29T01:32:44.456Z,4.49
2019-01-29T01:33:25.020Z,4.38
2019-01-29T01:34:05.601Z,4.44
2019-01-29T01:34:46.176Z,4.42
2019-01-29T01:35:26.725Z,4.42
2019-01-29T01:36:07.276Z,4.38
2019-01-29T01:36:47.841Z,4.35
2019-01-29T01:37:28.392Z,4.28
2019-01-29T01:38:08.955Z,4.28
2019-01-29T01:38:49.509Z,4.34
2019-01-29T01:39:30.072Z,4.35
2019-01-29T01:40:10.622Z,4.41
2019-01-29T01:40:51.181Z,4.32
2019-01-29T01:41:31.729Z,4.31
2019-01-29T01:42:12.314Z,4.37
2019-01-29T01:42:52.881Z,4.34
2019-01-29T01:43:33.456Z,4.31
2019-01-29T01:44:14.016Z,4.34
2019-01-29T01:44:54.566Z,4.35
2019-01-29T01:45:35.111Z,4.35
2019-01-29T01:46:15.653Z,4.32
2019-01-29T01:46:56.236Z,4.32
2019-01-29T01:47:36.783Z,4.32
2019-01-29T01:48:17.341Z,4.34
2019-01-29T01:48:57.882Z,4.34
2019-01-29T01:49:38.443Z,4.28
2019-01-29T01:50:19.006Z,4.34
2019-01-29T01:50:59.588Z,4.32
2019-01-29T01:51:40.106Z,4.24
2019-01-29T01:52:20.686Z,4.23
2019-01-29T01:53:01.249Z,4.23
2019-01-29T01:53:41.823Z,4.22
2019-01-29T01:54:22.393Z,4.26
2019-01-29T01:55:02.943Z,4.22
2019-01-29T01:55:43.503Z,4.26
2019-01-29T01:56:24.075Z,4.24
2019-01-29T01:57:04.619Z,4.22
2019-01-29T01:57:45.194Z,4.24
2019-01-29T01:58:25.757Z,4.3
2019-01-29T01:59:06.329Z,4.26
2019-01-29T01:59:46.889Z,4.28
2019-01-29T02:00:27.452Z,4.26
2019-01-29T02:01:08.013Z,4.24
2019-01-29T02:01:48.568Z,4.19
2019-01-29T02:02:29.116Z,4.22
2019-01-29T02:03:09.677Z,4.22
2019-01-29T02:03:50.245Z,4.19
2019-01-29T02:04:30.808Z,4.28
2019-01-29T02:05:11.384Z,4.2
2019-01-29T02:05:51.941Z,4.28
2019-01-29T02:06:32.497Z,4.23
2019-01-29T02:07:13.055Z,4.2
2019-01-29T02:07:53.608Z,4.24
2019-01-29T02:08:34.164Z,4.19
2019-01-29T02:09:14.713Z,4.19
2019-01-29T02:09:55.268Z,4.26
2019-01-29T02:10:35.815Z,4.24
2019-01-29T02:11:16.389Z,4.24
2019-01-29T02:11:56.962Z,4.26
2019-01-29T02:12:37.522Z,4.26
2019-01-29T02:13:18.086Z,4.22
2019-01-29T02:13:58.645Z,4.22
2019-01-29T02:14:39.207Z,4.3
2019-01-29T02:15:19.774Z,4.32
2019-01-29T02:16:00.353Z,4.2
2019-01-29T02:16:40.927Z,4.26
2019-01-29T02:17:21.516Z,4.22
2019-01-29T02:18:02.099Z,4.2
2019-01-29T02:18:42.676Z,4.23
2019-01-29T02:19:23.241Z,4.2
2019-01-29T02:20:03.838Z,4.3
2019-01-29T02:20:44.386Z,4.22
2019-01-29T02:21:24.935Z,4.23
2019-01-29T02:22:05.518Z,4.26
2019-01-29T02:22:46.169Z,4.26
2019-01-29T02:23:26.744Z,4.23
2019-01-29T02:24:07.308Z,4.22
2019-01-29T02:24:47.872Z,4.24
2019-01-29T02:25:28.420Z,4.19
2019-01-29T02:26:08.979Z,4.23
2019-01-29T02:26:49.543Z,4.08
2019-01-29T02:27:30.097Z,4.1
2019-01-29T02:28:10.649Z,4.12
2019-01-29T02:28:51.241Z,4.06
2019-01-29T02:29:31.801Z,4.1
2019-01-29T02:30:12.362Z,4.04
2019-01-29T02:30:52.940Z,4.1
2019-01-29T02:31:33.509Z,4.04
2019-01-29T02:32:14.067Z,4.1
2019-01-29T02:32:54.608Z,4.06
2019-01-29T02:33:35.165Z,4.02
2019-01-29T02:34:15.736Z,3.99
2019-01-29T02:34:56.301Z,3.99
2019-01-29T02:35:36.883Z,4.01
2019-01-29T02:36:17.439Z,3.96
2019-01-29T02:36:58.004Z,4.06
2019-01-29T02:37:38.588Z,4.01
2019-01-29T02:38:19.180Z,4.02
2019-01-29T02:38:59.736Z,4.06
2019-01-29T02:39:40.293Z,4.02
2019-01-29T02:40:20.853Z,4.02
2019-01-29T02:41:01.417Z,4.04
2019-01-29T02:41:41.977Z,4.01
2019-01-29T02:42:22.523Z,4.05
2019-01-29T02:43:03.076Z,4.01
2019-01-29T02:43:43.633Z,3.94
2019-01-29T02:44:24.198Z,3.88
2019-01-29T02:45:04.766Z,3.91
2019-01-29T02:45:45.320Z,3.88
2019-01-29T02:46:25.884Z,3.86
2019-01-29T02:47:06.471Z,3.91
2019-01-29T02:47:47.027Z,3.86
2019-01-29T02:48:27.581Z,3.86
2019-01-29T02:49:08.136Z,3.86
2019-01-29T02:49:48.695Z,3.84
2019-01-29T02:50:29.261Z,3.84
2019-01-29T02:51:09.856Z,3.95
2019-01-29T02:51:50.435Z,3.87
2019-01-29T02:52:30.965Z,3.84
2019-01-29T02:53:17.997Z,3.86
2019-01-29T02:53:52.088Z,3.88
2019-01-29T02:54:32.645Z,3.83
2019-01-29T02:55:13.197Z,3.81
2019-01-29T02:55:53.762Z,3.81
2019-01-29T02:56:34.324Z,3.78
2019-01-29T02:57:14.881Z,3.8
2019-01-29T02:57:55.447Z,3.81
2019-01-29T03:03:17.239Z,3.78
2019-01-29T03:03:57.808Z,3.73
2019-01-29T03:04:38.350Z,3.73
2019-01-29T03:05:18.905Z,3.69
2019-01-29T03:05:59.455Z,3.68
2019-01-29T03:06:39.998Z,3.65
2019-01-29T03:07:20.550Z,3.68
2019-01-29T03:08:01.104Z,3.62
2019-01-29T03:08:41.647Z,3.63
2019-01-29T03:09:22.203Z,3.7
2019-01-29T03:10:02.781Z,3.65
2019-01-29T03:10:43.343Z,3.59
2019-01-29T03:11:23.911Z,3.66
2019-01-29T03:12:04.460Z,3.69
2019-01-29T03:12:45.027Z,3.69
2019-01-29T03:13:25.586Z,3.65
2019-01-29T03:14:06.141Z,3.73
2019-01-29T03:14:46.715Z,3.74
2019-01-29T03:15:27.262Z,3.73
2019-01-29T03:16:07.819Z,3.73
2019-01-29T03:16:48.382Z,3.68
2019-01-29T03:17:28.943Z,3.68
2019-01-29T03:18:09.506Z,3.69
2019-01-29T03:18:50.073Z,3.68
2019-01-29T03:19:30.649Z,3.65
2019-01-29T03:20:11.201Z,3.68
2019-01-29T03:20:51.754Z,3.74
2019-01-29T03:21:32.316Z,3.66
2019-01-29T03:22:12.871Z,3.68
2019-01-29T03:22:53.446Z,3.69
2019-01-29T03:23:34.012Z,3.7
2019-01-29T03:24:14.565Z,3.66
2019-01-29T03:24:55.117Z,3.6
2019-01-29T03:25:35.675Z,3.65
2019-01-29T03:26:16.234Z,3.66
2019-01-29T03:26:56.796Z,3.62
2019-01-29T03:27:37.350Z,3.56
2019-01-29T03:28:17.909Z,3.55
2019-01-29T03:28:58.469Z,3.51
2019-01-29T03:29:39.025Z,3.53
2019-01-29T03:30:19.644Z,3.5
2019-01-29T03:31:00.198Z,3.48
2019-01-29T03:31:40.762Z,3.51
2019-01-29T03:32:21.316Z,3.51
2019-01-29T03:33:02.036Z,3.5
2019-01-29T03:33:42.436Z,3.45
2019-01-29T03:34:23.020Z,3.5
2019-01-29T03:35:03.568Z,3.5
2019-01-29T03:35:44.140Z,3.44
2019-01-29T03:36:24.705Z,3.42
2019-01-29T03:37:05.255Z,3.44
2019-01-29T03:37:45.827Z,3.44
2019-01-29T03:38:26.392Z,3.47
2019-01-29T03:39:06.951Z,3.45
2019-01-29T03:39:47.499Z,3.44
2019-01-29T03:40:28.058Z,3.48
2019-01-29T03:41:08.618Z,3.42
2019-01-29T03:41:49.192Z,3.45
2019-01-29T03:42:29.810Z,3.51
2019-01-29T03:43:10.312Z,3.56
2019-01-29T03:43:50.889Z,3.5
2019-01-29T03:44:31.444Z,3.48
2019-01-29T03:45:11.994Z,3.56
2019-01-29T03:45:52.553Z,3.5
2019-01-29T03:46:33.107Z,3.55
2019-01-29T03:47:13.662Z,3.53
2019-01-29T03:47:54.213Z,3.58
2019-01-29T03:48:35.026Z,3.53
2019-01-29T03:49:15.613Z,3.53
2019-01-29T03:49:56.208Z,3.59
2019-01-29T03:50:36.726Z,3.53
2019-01-29T03:51:17.279Z,3.48
2019-01-29T03:51:57.851Z,3.36
2019-01-29T03:52:38.414Z,3.34
2019-01-29T03:53:18.998Z,3.4
2019-01-29T03:53:59.557Z,3.26
2019-01-29T03:54:40.105Z,3.36
2019-01-29T03:55:20.665Z,3.36
2019-01-29T03:56:01.232Z,3.25
2019-01-29T03:56:41.784Z,3.25
2019-01-29T03:57:22.362Z,3.25
2019-01-29T03:58:02.922Z,3.25
2019-01-29T03:58:43.507Z,3.22
2019-01-29T03:59:24.064Z,3.25
2019-01-29T04:00:04.627Z,3.25
2019-01-29T04:00:45.176Z,3.14
2019-01-29T04:01:25.744Z,3.25
2019-01-29T04:02:06.303Z,3.23
2019-01-29T04:02:46.891Z,3.25
2019-01-29T04:03:27.445Z,3.31
2019-01-29T04:04:07.998Z,3.26
2019-01-29T04:04:48.556Z,3.28
2019-01-29T04:05:29.125Z,3.26
2019-01-29T04:06:09.689Z,3.25
2019-01-29T04:06:50.248Z,3.21
2019-01-29T04:07:30.804Z,3.29
2019-01-29T04:08:11.370Z,3.26
2019-01-29T04:08:51.968Z,3.26
2019-01-29T04:09:32.521Z,3.28
2019-01-29T04:10:15.539Z,3.26
2019-01-29T04:10:53.646Z,3.29
2019-01-29T04:11:34.226Z,3.25
2019-01-29T04:12:14.770Z,3.25
2019-01-29T04:12:55.338Z,3.28
2019-01-29T04:13:35.909Z,3.36
2019-01-29T04:14:16.485Z,3.34
2019-01-29T04:14:57.049Z,3.32
2019-01-29T04:15:37.605Z,3.32
2019-01-29T04:16:18.180Z,3.34
2019-01-29T04:16:58.739Z,3.32
2019-01-29T04:17:39.294Z,3.36
2019-01-29T04:18:19.853Z,3.28
2019-01-29T04:19:00.481Z,3.28
2019-01-29T04:19:40.963Z,3.36
2019-01-29T04:20:21.516Z,3.44
2019-01-29T04:21:02.141Z,3.37
2019-01-29T04:21:42.704Z,3.41
2019-01-29T04:22:23.300Z,3.36
2019-01-29T04:23:03.865Z,3.42
2019-01-29T04:23:47.553Z,3.41
2019-01-29T04:24:24.979Z,3.42
2019-01-29T04:25:05.532Z,3.34
2019-01-29T04:25:46.097Z,3.29
2019-01-29T04:26:26.663Z,3.31
2019-01-29T04:27:07.228Z,3.37
2019-01-29T04:27:47.800Z,3.36
2019-01-29T04:28:28.376Z,3.31
2019-01-29T04:29:09.026Z,3.42
2019-01-29T04:29:49.470Z,3.32
2019-01-29T04:30:30.047Z,3.28
2019-01-29T04:31:10.678Z,3.34
2019-01-29T04:31:51.247Z,3.29
2019-01-29T04:32:31.824Z,3.31
2019-01-29T04:33:12.383Z,3.32
2019-01-29T04:33:52.950Z,3.34
2019-01-29T04:34:33.509Z,3.26
2019-01-29T04:35:14.067Z,3.32
2019-01-29T04:35:54.619Z,3.4
2019-01-29T04:36:35.191Z,3.32
2019-01-29T04:37:15.746Z,3.25
2019-01-29T04:37:56.308Z,3.29
2019-01-29T04:38:36.898Z,3.31
2019-01-29T04:39:17.474Z,3.25
2019-01-29T04:39:58.030Z,3.28
2019-01-29T04:40:38.578Z,3.29
2019-01-29T04:41:19.144Z,3.25
2019-01-29T04:41:59.713Z,3.28
2019-01-29T04:42:40.268Z,3.21
2019-01-29T04:43:20.848Z,3.28
2019-01-29T04:44:01.402Z,3.23
2019-01-29T04:44:41.958Z,3.25
2019-01-29T04:45:22.534Z,3.22
2019-01-29T04:46:03.098Z,3.21
2019-01-29T04:46:43.646Z,3.08
2019-01-29T04:47:24.202Z,3.1
2019-01-29T04:48:04.785Z,3.22
2019-01-29T04:48:45.341Z,3.22
2019-01-29T04:49:25.909Z,3.21
2019-01-29T04:50:06.446Z,3.22
2019-01-29T04:50:46.986Z,3.19
2019-01-29T04:51:27.553Z,3.23
2019-01-29T04:52:08.117Z,3.19
2019-01-29T04:52:48.676Z,3.19
2019-01-29T04:53:29.229Z,3.11
2019-01-29T04:54:09.784Z,3.14
2019-01-29T04:54:50.336Z,3.1
2019-01-29T04:55:30.893Z,3.04
2019-01-29T04:56:11.489Z,3.05
2019-01-29T04:56:52.043Z,3.08
2019-01-29T04:57:32.611Z,3.19
2019-01-29T04:58:13.188Z,3.18
2019-01-29T04:58:53.744Z,3.11
2019-01-29T04:59:34.301Z,3.11
2019-01-29T05:00:14.871Z,3.23
2019-01-29T05:00:55.427Z,3.1
2019-01-29T05:01:35.988Z,3.18
2019-01-29T05:02:16.541Z,3.13
2019-01-29T05:02:57.093Z,3.18
2019-01-29T05:03:37.646Z,3.1
2019-01-29T05:04:18.198Z,3.16
2019-01-29T05:04:58.763Z,3.11
2019-01-29T05:05:39.315Z,3.25
2019-01-29T05:06:19.865Z,3.16
2019-01-29T05:07:00.430Z,3.13
2019-01-29T05:07:41.003Z,3.19
2019-01-29T05:08:21.561Z,3.21
2019-01-29T05:09:02.119Z,3.18
2019-01-29T05:09:42.784Z,3.21
2019-01-29T05:10:23.437Z,3.11
2019-01-29T05:11:04.003Z,3.18
2019-01-29T05:11:44.557Z,3.22
2019-01-29T05:12:25.103Z,3.19
2019-01-29T05:13:05.657Z,3.16
2019-01-29T05:13:46.220Z,3.21
2019-01-29T05:14:26.776Z,3.21
2019-01-29T05:15:07.326Z,3.08
2019-01-29T05:15:47.913Z,3.22
2019-01-29T05:16:28.474Z,3.14
2019-01-29T05:17:09.031Z,3.14
2019-01-29T05:17:49.602Z,3.14
2019-01-29T05:18:32.024Z,3.13
2019-01-29T05:19:10.714Z,3.13
2019-01-29T05:19:51.282Z,3.21
2019-01-29T05:20:31.830Z,3.19
2019-01-29T05:21:12.399Z,3.11
2019-01-29T05:21:52.944Z,3.28
2019-01-29T05:22:33.507Z,3.22
2019-01-29T05:23:14.073Z,3.22
2019-01-29T05:23:54.641Z,3.22
2019-01-29T05:24:35.206Z,3.11
2019-01-29T05:25:15.759Z,3.21
2019-01-29T05:25:56.324Z,3.23
2019-01-29T05:26:36.877Z,3.11
2019-01-29T05:27:17.441Z,3.14
2019-01-29T05:27:57.996Z,3.22
2019-01-29T05:28:38.552Z,3.22
2019-01-29T05:29:19.122Z,3.18
2019-01-29T05:29:59.665Z,3.14
2019-01-29T05:30:40.217Z,3.19
2019-01-29T05:31:20.772Z,3.23
2019-01-29T05:32:01.336Z,3.19
2019-01-29T05:32:41.902Z,3.26
2019-01-29T05:33:22.471Z,3.14
2019-01-29T05:34:03.025Z,3.19
2019-01-29T05:34:43.572Z,3.22
2019-01-29T05:35:24.184Z,3.19
2019-01-29T05:36:04.753Z,3.18
2019-01-29T05:36:45.312Z,3.16
2019-01-29T05:37:25.868Z,3.07
2019-01-29T05:38:06.428Z,3.08
2019-01-29T05:38:46.980Z,3.08
2019-01-29T05:39:27.533Z,3.21
2019-01-29T05:40:08.095Z,3.22
2019-01-29T05:40:48.654Z,3.18
2019-01-29T05:41:29.203Z,3.16
2019-01-29T05:42:09.774Z,3.11
2019-01-29T05:42:50.362Z,3.1
2019-01-29T05:43:30.913Z,3.1
2019-01-29T05:44:11.460Z,3.08
2019-01-29T05:44:52.014Z,3.1
2019-01-29T05:45:32.575Z,3.08
2019-01-29T05:46:13.131Z,3.13
2019-01-29T05:46:53.700Z,3.14
2019-01-29T05:47:34.264Z,3.19
2019-01-29T05:48:14.820Z,3.08
2019-01-29T05:48:55.372Z,3.01
2019-01-29T05:49:35.984Z,3.07
2019-01-29T05:50:16.585Z,3.1
2019-01-29T05:50:57.225Z,3.11
2019-01-29T05:51:40.582Z,3.07
2019-01-29T05:52:19.203Z,3.11
2019-01-29T05:52:59.756Z,3.1
2019-01-29T05:53:40.317Z,3.05
2019-01-29T05:54:20.884Z,3.04
2019-01-29T05:55:01.458Z,3.1
2019-01-29T05:55:42.002Z,3.07
2019-01-29T05:56:22.586Z,3.08
2019-01-29T05:57:03.157Z,3.11
2019-01-29T05:57:43.720Z,3.07
2019-01-29T05:58:24.297Z,3.05
2019-01-29T05:59:04.861Z,3.03
2019-01-29T05:59:45.417Z,2.98
2019-01-29T06:00:26.017Z,2.98
2019-01-29T06:01:06.575Z,3.01
2019-01-29T06:01:47.145Z,3.04
2019-01-29T06:02:27.701Z,3
2019-01-29T06:03:08.265Z,3.03
2019-01-29T06:03:48.821Z,2.95
2019-01-29T06:04:29.418Z,2.95
2019-01-29T06:05:09.971Z,2.97
2019-01-29T06:05:50.527Z,3
2019-01-29T06:06:31.079Z,2.98
2019-01-29T06:07:11.642Z,2.95
2019-01-29T06:07:52.213Z,2.87
2019-01-29T06:08:32.788Z,2.93
2019-01-29T06:09:13.374Z,2.9
2019-01-29T06:09:53.940Z,2.85
2019-01-29T06:10:34.510Z,2.86
2019-01-29T06:11:15.058Z,2.87
2019-01-29T06:11:55.624Z,2.83
2019-01-29T06:12:36.199Z,2.92
2019-01-29T06:13:16.774Z,2.93
2019-01-29T06:13:57.323Z,2.89
2019-01-29T06:14:37.872Z,2.85
2019-01-29T06:15:18.427Z,2.87
2019-01-29T06:15:59.007Z,2.86
2019-01-29T06:16:39.550Z,2.85
2019-01-29T06:17:27.288Z,2.87
2019-01-29T06:18:00.762Z,2.85
2019-01-29T06:18:41.255Z,2.85
2019-01-29T06:19:21.831Z,2.89
2019-01-29T06:20:02.393Z,2.85
2019-01-29T06:20:42.962Z,2.83
2019-01-29T06:21:23.537Z,2.83
2019-01-29T06:22:04.092Z,2.92
2019-01-29T06:22:44.658Z,2.85
2019-01-29T06:23:25.213Z,2.92
2019-01-29T06:24:05.767Z,2.86
2019-01-29T06:24:46.315Z,2.9
2019-01-29T06:25:26.864Z,2.82
2019-01-29T06:26:07.433Z,2.83
2019-01-29T06:26:48.012Z,2.83
2019-01-29T06:27:28.555Z,2.83
2019-01-29T06:28:09.162Z,2.8
2019-01-29T06:28:49.745Z,2.75
2019-01-29T06:29:30.407Z,2.8
2019-01-29T06:30:10.997Z,2.75
2019-01-29T06:30:51.555Z,2.86
2019-01-29T06:31:32.146Z,2.85
2019-01-29T06:32:12.899Z,3.03
2019-01-29T06:32:53.535Z,3.23
2019-01-29T06:33:34.109Z,3.68
2019-01-29T06:34:14.761Z,3.98
2019-01-29T06:34:55.469Z,4.23
2019-01-29T06:35:36.017Z,4.53
2019-01-29T06:36:16.649Z,4.7
2019-01-29T06:36:57.219Z,4.89
2019-01-29T06:37:37.807Z,5.1
2019-01-29T06:38:18.380Z,5.26
2019-01-29T06:38:58.941Z,5.44
2019-01-29T06:39:39.508Z,5.54
2019-01-29T06:40:20.069Z,5.72
2019-01-29T06:41:00.654Z,5.76
2019-01-29T06:41:41.229Z,5.93
2019-01-29T06:42:21.777Z,5.99
2019-01-29T06:43:02.337Z,6.05
2019-01-29T06:43:42.895Z,6.26
2019-01-29T06:44:23.492Z,6.45
2019-01-29T06:45:04.141Z,6.57
2019-01-29T06:45:44.709Z,6.7
2019-01-29T06:46:25.268Z,6.69
2019-01-29T06:47:05.819Z,6.75
2019-01-29T06:47:46.371Z,6.84
2019-01-29T06:48:27.108Z,6.99
2019-01-29T06:49:07.685Z,6.82
2019-01-29T06:49:48.249Z,6.77
2019-01-29T06:50:28.855Z,6.62
2019-01-29T06:51:09.431Z,6.46
2019-01-29T06:51:50.003Z,6.26
2019-01-29T06:52:30.594Z,6.05
2019-01-29T06:53:11.172Z,5.8
2019-01-29T06:53:51.743Z,5.65
2019-01-29T06:54:34.083Z,5.44
2019-01-29T06:55:12.851Z,5.23
2019-01-29T06:55:53.413Z,5.07
2019-01-29T06:56:33.961Z,4.99
2019-01-29T06:57:14.523Z,4.78
2019-01-29T06:57:56.077Z,4.63
2019-01-29T06:58:35.682Z,4.63
2019-01-29T06:59:16.221Z,4.5
2019-01-29T06:59:56.839Z,4.48
2019-01-29T07:00:37.408Z,4.23
2019-01-29T07:01:17.994Z,4.16
2019-01-29T07:01:58.566Z,4.1
2019-01-29T07:02:39.125Z,4.05
2019-01-29T07:03:19.723Z,3.92
2019-01-29T07:04:00.272Z,3.86
2019-01-29T07:04:41.014Z,3.8
2019-01-29T07:05:21.813Z,3.78
2019-01-29T07:06:03.326Z,3.8
2019-01-29T07:06:43.895Z,3.76
2019-01-29T07:07:24.465Z,3.68
2019-01-29T07:08:05.124Z,3.62
2019-01-29T07:08:45.672Z,3.6
2019-01-29T07:09:26.410Z,3.62
2019-01-29T07:10:07.041Z,3.47
2019-01-29T07:10:47.605Z,3.5
2019-01-29T07:11:28.168Z,3.56
2019-01-29T07:12:09.289Z,3.48
2019-01-29T07:12:50.017Z,3.56
2019-01-29T07:13:30.899Z,3.45
2019-01-29T07:14:12.067Z,3.47
2019-01-29T07:14:53.076Z,3.44
2019-01-29T07:15:33.635Z,3.42
2019-01-29T07:16:14.205Z,3.41
2019-01-29T07:16:54.769Z,3.42
2019-01-29T07:17:35.350Z,3.36
2019-01-29T07:18:15.919Z,3.31
2019-01-29T07:18:56.469Z,3.28
2019-01-29T07:19:37.026Z,3.37
2019-01-29T07:20:17.582Z,3.32
2019-01-29T07:20:58.166Z,3.36
2019-01-29T07:21:38.729Z,3.28
2019-01-29T07:22:19.276Z,3.31
2019-01-29T07:22:59.844Z,3.23
2019-01-29T07:23:40.792Z,3.23
2019-01-29T07:24:21.303Z,3.21
2019-01-29T07:25:01.857Z,3.23
2019-01-29T07:25:42.436Z,3.22
2019-01-29T07:26:22.997Z,3.18
2019-01-29T07:27:03.541Z,3.18
2019-01-29T07:27:44.114Z,3.23
2019-01-29T07:28:24.772Z,3.22
2019-01-29T07:29:05.348Z,3.21
2019-01-29T07:29:45.863Z,3.18
2019-01-29T07:30:26.451Z,3.19
2019-01-29T07:31:07.006Z,3.11
2019-01-29T07:31:47.561Z,3.1
2019-01-29T07:32:28.147Z,3.05
2019-01-29T07:33:08.714Z,3.07
2019-01-29T07:33:49.281Z,3.11
2019-01-29T07:34:29.837Z,3.13
2019-01-29T07:35:10.454Z,3
2019-01-29T07:35:51.025Z,2.93
2019-01-29T07:36:31.589Z,2.95
2019-01-29T07:37:12.159Z,2.89
2019-01-29T07:37:52.761Z,2.93
2019-01-29T07:38:33.315Z,2.98
2019-01-29T07:39:13.885Z,3.01
2019-01-29T07:39:54.464Z,3.05
2019-01-29T07:40:35.025Z,3.05
2019-01-29T07:41:15.608Z,3.08
2019-01-29T07:41:56.182Z,3.11
2019-01-29T07:42:36.768Z,3.04
2019-01-29T07:43:17.338Z,3.05
2019-01-29T07:43:57.892Z,3.08
2019-01-29T07:44:38.471Z,3.08
2019-01-29T07:45:19.029Z,3.04
2019-01-29T07:45:59.576Z,3.04
2019-01-29T07:46:40.122Z,3.04
2019-01-29T07:47:20.669Z,3.07
2019-01-29T07:48:01.223Z,3.04
2019-01-29T07:48:42.074Z,3.13
2019-01-29T07:49:22.665Z,3.07
2019-01-29T07:50:03.230Z,3.11
2019-01-29T07:50:43.795Z,3.03
2019-01-29T07:51:24.356Z,3.05
2019-01-29T07:52:04.965Z,3.04
2019-01-29T07:52:45.518Z,3.04
2019-01-29T07:53:26.145Z,3.11
2019-01-29T07:54:06.660Z,3.08
2019-01-29T07:54:51.168Z,3
2019-01-29T07:55:27.773Z,2.97
2019-01-29T07:56:08.329Z,2.97
2019-01-29T07:56:48.886Z,2.97
2019-01-29T07:57:29.438Z,2.95
2019-01-29T07:58:10.016Z,3
2019-01-29T07:58:50.576Z,2.97
2019-01-29T07:59:33.007Z,2.97
2019-01-29T08:00:11.709Z,3
2019-01-29T08:00:52.308Z,3.03
2019-01-29T08:01:32.843Z,3.03
2019-01-29T08:02:13.419Z,3.05
2019-01-29T08:02:54.001Z,3.08
2019-01-29T08:03:38.104Z,3.1
2019-01-29T08:04:15.122Z,3.11
2019-01-29T08:04:55.684Z,3.05
2019-01-29T08:05:36.242Z,3.08
2019-01-29T08:06:16.802Z,3.1
2019-01-29T08:06:57.361Z,3.08
2019-01-29T08:07:37.917Z,3.18
2019-01-29T08:08:18.469Z,3.14
2019-01-29T08:08:59.018Z,3.08
2019-01-29T08:09:39.587Z,3.05
2019-01-29T08:10:20.144Z,3.14
2019-01-29T08:11:00.726Z,3.05
2019-01-29T08:11:41.302Z,3.1
2019-01-29T08:12:21.862Z,3.07
2019-01-29T08:13:02.455Z,3.16
2019-01-29T08:13:43.133Z,3.16
2019-01-29T08:14:23.706Z,3.14
2019-01-29T08:15:04.476Z,3.16
2019-01-29T08:15:45.030Z,3.11
2019-01-29T08:16:25.591Z,3.21
2019-01-29T08:17:06.366Z,3.16
2019-01-29T08:17:46.841Z,3.16
2019-01-29T08:18:27.408Z,3.05
2019-01-29T08:19:07.979Z,3.19
2019-01-29T08:19:48.531Z,3.21
2019-01-29T08:20:29.094Z,3.22
2019-01-29T08:21:09.641Z,3.19
2019-01-29T08:21:50.199Z,3.16
2019-01-29T08:22:30.765Z,3.25
2019-01-29T08:23:11.331Z,3.26
2019-01-29T08:23:51.899Z,3.26
2019-01-29T08:24:32.468Z,3.29
2019-01-29T08:25:13.041Z,3.23
2019-01-29T08:25:53.823Z,3.34
2019-01-29T08:26:34.404Z,3.26
2019-01-29T08:27:15.174Z,3.28
2019-01-29T08:27:55.755Z,3.42
2019-01-29T08:28:36.312Z,3.32
2019-01-29T08:29:16.863Z,3.36
2019-01-29T08:29:57.415Z,3.36
2019-01-29T08:30:37.974Z,3.23
2019-01-29T08:31:18.566Z,3.29
2019-01-29T08:31:59.130Z,3.26
2019-01-29T08:32:39.690Z,3.23
2019-01-29T08:33:20.275Z,3.26
2019-01-29T08:34:00.871Z,3.26
2019-01-29T08:34:41.428Z,3.26
2019-01-29T08:35:21.981Z,3.22
2019-01-29T08:36:02.544Z,3.28
2019-01-29T08:36:43.098Z,3.31
2019-01-29T08:37:23.659Z,3.36
2019-01-29T08:38:04.314Z,3.28
2019-01-29T08:38:44.888Z,3.28
2019-01-29T08:39:25.520Z,3.29
2019-01-29T08:40:07.071Z,3.28
2019-01-29T08:40:47.636Z,3.32
2019-01-29T08:41:28.199Z,3.4
2019-01-29T08:42:09.536Z,3.31
2019-01-29T08:42:50.179Z,3.36
2019-01-29T08:43:30.743Z,3.21
2019-01-29T08:44:11.310Z,3.23
2019-01-29T08:44:51.870Z,3.25
2019-01-29T08:45:32.460Z,3.21
2019-01-29T08:46:13.295Z,3.26
2019-01-29T08:46:53.859Z,3.25
2019-01-29T08:47:34.423Z,3.25
2019-01-29T08:48:15.093Z,3.28
2019-01-29T08:48:55.655Z,3.29
2019-01-29T08:49:36.899Z,3.28
2019-01-29T08:50:16.984Z,3.4
2019-01-29T08:50:57.649Z,3.25
2019-01-29T08:51:38.219Z,3.32
2019-01-29T08:52:18.837Z,3.31
2019-01-29T08:52:59.386Z,3.26
2019-01-29T08:53:39.996Z,3.29
2019-01-29T08:54:20.638Z,3.28
2019-01-29T08:55:09.897Z,3.42
2019-01-29T08:55:41.880Z,3.34
2019-01-29T08:56:22.455Z,3.44
2019-01-29T08:57:03.022Z,3.37
2019-01-29T08:57:43.628Z,3.42
2019-01-29T08:58:27.057Z,3.45
2019-01-29T08:59:04.760Z,3.42
2019-01-29T08:59:45.426Z,3.5
2019-01-29T09:00:25.994Z,3.48
2019-01-29T09:01:06.591Z,3.47
2019-01-29T09:01:47.354Z,3.59
2019-01-29T09:02:27.911Z,3.51
2019-01-29T09:03:08.476Z,3.47
2019-01-29T09:03:49.051Z,3.5
2019-01-29T09:04:29.608Z,3.51
2019-01-29T09:05:10.161Z,3.6
2019-01-29T09:05:50.722Z,3.65
2019-01-29T09:06:31.358Z,3.6